createdAt,value
2017-10-09T00:00:34.885Z,0
2017-10-09T00:01:35.540Z,0
2017-10-09T00:02:36.191Z,0
2017-10-09T00:03:36.845Z,0
2017-10-09T00:04:37.497Z,0
2017-10-09T00:05:38.152Z,0
2017-10-09T00:06:38.805Z,0
2017-10-09T00:07:39.458Z,0
2017-10-09T00:08:40.110Z,0
2017-10-09T00:09:40.766Z,0
2017-10-09T00:10:41.418Z,0
2017-10-09T00:11:42.074Z,0
2017-10-09T00:12:42.725Z,0
2017-10-09T00:13:43.381Z,0
2017-10-09T00:14:44.070Z,0
2017-10-09T00:15:44.724Z,0
2017-10-09T00:16:45.380Z,0
2017-10-09T00:17:46.033Z,0
2017-10-09T00:18:46.686Z,0
2017-10-09T00:19:47.340Z,0
2017-10-09T00:20:47.992Z,0
2017-10-09T00:21:48.647Z,0
2017-10-09T00:22:49.299Z,0
2017-10-09T00:23:49.952Z,0
2017-10-09T00:24:50.605Z,0
2017-10-09T00:25:51.259Z,0
2017-10-09T00:26:51.912Z,0
2017-10-09T00:27:52.565Z,0
2017-10-09T00:28:53.219Z,0
2017-10-09T00:29:53.872Z,0
2017-10-09T00:30:54.524Z,0
2017-10-09T00:31:55.177Z,0
2017-10-09T00:32:55.832Z,0
2017-10-09T00:33:56.485Z,0
2017-10-09T00:34:57.139Z,0
2017-10-09T00:35:57.791Z,0
2017-10-09T00:36:58.497Z,0
2017-10-09T00:37:59.150Z,0
2017-10-09T00:38:59.802Z,0
2017-10-09T00:40:00.457Z,0
2017-10-09T00:41:01.113Z,0
2017-10-09T00:42:01.763Z,0
2017-10-09T00:43:02.416Z,0
2017-10-09T00:44:03.071Z,0
2017-10-09T00:45:03.723Z,0
2017-10-09T00:46:04.378Z,0
2017-10-09T00:47:05.080Z,0
2017-10-09T00:48:05.732Z,0
2017-10-09T00:49:06.386Z,0
2017-10-09T00:50:07.039Z,0
2017-10-09T00:51:07.694Z,0
2017-10-09T00:52:08.347Z,0
2017-10-09T00:53:09.036Z,0
2017-10-09T00:54:09.691Z,0
2017-10-09T00:55:10.344Z,0
2017-10-09T00:56:10.998Z,0
2017-10-09T00:57:11.951Z,0
2017-10-09T00:58:12.605Z,0
2017-10-09T00:59:13.258Z,0
2017-10-09T01:00:13.910Z,0
2017-10-09T01:01:14.564Z,0
2017-10-09T01:02:15.218Z,0
2017-10-09T01:03:15.872Z,0
2017-10-09T01:04:16.524Z,0
2017-10-09T01:05:17.177Z,0
2017-10-09T01:06:17.832Z,0
2017-10-09T01:07:18.485Z,0
2017-10-09T01:08:19.138Z,0
2017-10-09T01:09:19.792Z,0
2017-10-09T01:10:20.445Z,0
2017-10-09T01:11:21.098Z,0
2017-10-09T01:12:21.751Z,0
2017-10-09T01:13:22.404Z,0
2017-10-09T01:14:23.058Z,0
2017-10-09T01:15:23.710Z,0
2017-10-09T01:16:24.362Z,0
2017-10-09T01:17:25.055Z,0
2017-10-09T01:18:25.746Z,0
2017-10-09T01:19:26.396Z,0
2017-10-09T01:20:27.048Z,0
2017-10-09T01:21:27.701Z,0
2017-10-09T01:22:28.355Z,0
2017-10-09T01:23:29.008Z,0
2017-10-09T01:24:29.662Z,0
2017-10-09T01:25:30.316Z,0
2017-10-09T01:26:30.970Z,0
2017-10-09T01:27:31.659Z,0
2017-10-09T01:28:32.311Z,0
2017-10-09T01:29:32.965Z,0
2017-10-09T01:30:33.618Z,0
2017-10-09T01:31:34.272Z,0
2017-10-09T01:32:34.975Z,0
2017-10-09T01:33:35.628Z,0
2017-10-09T01:34:36.317Z,0
2017-10-09T01:35:36.971Z,0
2017-10-09T01:36:37.624Z,0
2017-10-09T01:37:38.278Z,0
2017-10-09T01:38:38.931Z,0
2017-10-09T01:39:39.622Z,0
2017-10-09T01:40:40.274Z,0
2017-10-09T01:41:40.926Z,0
2017-10-09T01:42:41.579Z,0
2017-10-09T01:43:42.231Z,0
2017-10-09T01:44:42.886Z,0
2017-10-09T01:45:43.538Z,0
2017-10-09T01:46:44.190Z,0
2017-10-09T01:47:44.843Z,0
2017-10-09T01:48:45.498Z,0
2017-10-09T01:49:46.150Z,0
2017-10-09T01:50:46.803Z,0
2017-10-09T01:51:47.455Z,0
2017-10-09T01:52:48.111Z,0
2017-10-09T01:53:48.764Z,0
2017-10-09T01:54:49.415Z,0
2017-10-09T01:55:50.067Z,0
2017-10-09T01:56:50.721Z,0
2017-10-09T01:57:51.373Z,0
2017-10-09T01:58:52.027Z,0
2017-10-09T01:59:52.680Z,0
2017-10-09T02:00:53.334Z,0
2017-10-09T02:01:53.986Z,0
2017-10-09T02:02:54.690Z,0
2017-10-09T02:03:55.343Z,0
2017-10-09T02:04:55.995Z,0
2017-10-09T02:05:56.648Z,0
2017-10-09T02:06:57.301Z,0
2017-10-09T02:07:57.954Z,0
2017-10-09T02:08:58.607Z,0
2017-10-09T02:09:59.261Z,0
2017-10-09T02:10:59.913Z,0
2017-10-09T02:12:00.568Z,0
2017-10-09T02:13:01.271Z,0
2017-10-09T02:14:01.924Z,0
2017-10-09T02:15:02.577Z,0
2017-10-09T02:16:03.230Z,0
2017-10-09T02:17:03.884Z,0
2017-10-09T02:18:04.576Z,0
2017-10-09T02:19:05.228Z,0
2017-10-09T02:20:05.881Z,0
2017-10-09T02:21:06.539Z,0
2017-10-09T02:22:07.222Z,0
2017-10-09T02:23:07.876Z,0
2017-10-09T02:24:08.529Z,0
2017-10-09T02:25:09.183Z,0
2017-10-09T02:26:09.836Z,0
2017-10-09T02:27:10.487Z,0
2017-10-09T02:28:11.142Z,0
2017-10-09T02:29:11.794Z,0
2017-10-09T02:30:12.447Z,0
2017-10-09T02:31:13.099Z,0
2017-10-09T02:32:13.751Z,0
2017-10-09T02:33:14.656Z,0
2017-10-09T02:34:15.309Z,0
2017-10-09T02:35:15.963Z,0
2017-10-09T02:36:16.615Z,0
2017-10-09T02:37:17.269Z,0
2017-10-09T02:38:17.922Z,0
2017-10-09T02:39:18.576Z,0
2017-10-09T02:40:19.227Z,0
2017-10-09T02:41:19.882Z,0
2017-10-09T02:42:20.535Z,0
2017-10-09T02:43:21.190Z,0
2017-10-09T02:44:21.841Z,0
2017-10-09T02:45:22.495Z,0
2017-10-09T02:46:23.148Z,0
2017-10-09T02:47:23.838Z,0
2017-10-09T02:48:24.548Z,0
2017-10-09T02:49:25.196Z,0
2017-10-09T02:50:25.851Z,0
2017-10-09T02:51:26.503Z,0
2017-10-09T02:52:27.155Z,0
2017-10-09T02:53:27.809Z,0
2017-10-09T02:54:28.461Z,0
2017-10-09T02:55:29.114Z,0
2017-10-09T02:56:29.767Z,0
2017-10-09T02:57:30.420Z,0
2017-10-09T02:58:31.074Z,0
2017-10-09T02:59:31.723Z,0
2017-10-09T03:00:32.376Z,0
2017-10-09T03:01:33.030Z,0
2017-10-09T03:02:33.684Z,0
2017-10-09T03:03:34.336Z,0
2017-10-09T03:04:34.987Z,0
2017-10-09T03:05:35.642Z,0
2017-10-09T03:06:36.295Z,0
2017-10-09T03:07:36.949Z,0
2017-10-09T03:08:37.638Z,0
2017-10-09T03:09:38.292Z,0
2017-10-09T03:10:38.943Z,0
2017-10-09T03:11:39.596Z,0
2017-10-09T03:12:40.250Z,0
2017-10-09T03:13:40.901Z,0
2017-10-09T03:14:41.558Z,0
2017-10-09T03:15:42.208Z,0
2017-10-09T03:16:42.902Z,0
2017-10-09T03:17:43.549Z,0
2017-10-09T03:18:44.253Z,0
2017-10-09T03:19:44.906Z,0
2017-10-09T03:20:45.559Z,0
2017-10-09T03:21:46.212Z,0
2017-10-09T03:22:46.865Z,0
2017-10-09T03:23:47.517Z,0
2017-10-09T03:24:48.171Z,0
2017-10-09T03:25:48.823Z,0
2017-10-09T03:26:49.475Z,0
2017-10-09T03:27:50.128Z,0
2017-10-09T03:28:50.779Z,0
2017-10-09T03:29:51.433Z,0
2017-10-09T03:30:52.084Z,0
2017-10-09T03:31:52.738Z,0
2017-10-09T03:32:53.389Z,0
2017-10-09T03:33:54.093Z,0
2017-10-09T03:34:54.745Z,0
2017-10-09T03:35:55.397Z,0
2017-10-09T03:36:56.050Z,0
2017-10-09T03:37:56.702Z,0
2017-10-09T03:38:57.404Z,0
2017-10-09T03:39:58.058Z,0
2017-10-09T03:40:58.711Z,0
2017-10-09T03:41:59.363Z,0
2017-10-09T03:43:00.017Z,0
2017-10-09T03:44:00.669Z,0
2017-10-09T03:45:01.359Z,0
2017-10-09T03:46:02.017Z,0
2017-10-09T03:47:02.666Z,0
2017-10-09T03:48:03.318Z,0
2017-10-09T03:49:03.970Z,0
2017-10-09T03:50:04.622Z,0
2017-10-09T03:51:05.273Z,0
2017-10-09T03:52:05.927Z,0
2017-10-09T03:53:06.579Z,0
2017-10-09T03:54:07.231Z,0
2017-10-09T03:55:07.883Z,0
2017-10-09T03:56:08.536Z,0
2017-10-09T03:57:09.187Z,0
2017-10-09T03:58:09.841Z,0
2017-10-09T03:59:10.492Z,0
2017-10-09T04:00:11.145Z,0
2017-10-09T04:01:11.798Z,0
2017-10-09T04:02:12.451Z,0
2017-10-09T04:03:13.103Z,0
2017-10-09T04:04:13.757Z,0
2017-10-09T04:05:14.411Z,0
2017-10-09T04:06:15.062Z,0
2017-10-09T04:07:15.714Z,0
2017-10-09T04:08:16.366Z,0
2017-10-09T04:09:17.020Z,0
2017-10-09T04:10:17.674Z,0
2017-10-09T04:11:18.359Z,0
2017-10-09T04:12:19.013Z,0
2017-10-09T04:13:19.665Z,0
2017-10-09T04:14:20.318Z,0
2017-10-09T04:15:20.970Z,0
2017-10-09T04:16:21.628Z,0
2017-10-09T04:17:22.276Z,0
2017-10-09T04:18:22.929Z,0
2017-10-09T04:19:23.581Z,0
2017-10-09T04:20:24.270Z,0
2017-10-09T04:21:24.925Z,0
2017-10-09T04:22:25.616Z,0
2017-10-09T04:23:26.266Z,0
2017-10-09T04:24:26.919Z,0
2017-10-09T04:25:27.609Z,0
2017-10-09T04:26:28.261Z,0
2017-10-09T04:27:28.913Z,0
2017-10-09T04:28:29.565Z,0
2017-10-09T04:29:30.219Z,0
2017-10-09T04:30:30.870Z,0
2017-10-09T04:31:31.524Z,0
2017-10-09T04:32:32.178Z,0
2017-10-09T04:33:32.865Z,0
2017-10-09T04:34:33.566Z,0
2017-10-09T04:35:34.220Z,0
2017-10-09T04:36:34.871Z,0
2017-10-09T04:37:35.523Z,0
2017-10-09T04:38:36.177Z,0
2017-10-09T04:39:36.828Z,0
2017-10-09T04:40:37.484Z,0
2017-10-09T04:41:38.137Z,0
2017-10-09T04:42:38.825Z,0
2017-10-09T04:43:39.479Z,0
2017-10-09T04:44:40.129Z,0
2017-10-09T04:45:40.783Z,0
2017-10-09T04:46:41.433Z,0
2017-10-09T04:47:42.088Z,0
2017-10-09T04:48:42.740Z,0
2017-10-09T04:49:43.393Z,0
2017-10-09T04:50:44.046Z,0
2017-10-09T04:51:44.702Z,0
2017-10-09T04:52:45.350Z,0
2017-10-09T04:53:46.002Z,0
2017-10-09T04:54:46.654Z,0
2017-10-09T04:55:47.307Z,0
2017-10-09T04:56:48.034Z,0
2017-10-09T04:57:48.618Z,0
2017-10-09T04:58:49.269Z,0
2017-10-09T04:59:49.921Z,0
2017-10-09T05:00:50.574Z,0
2017-10-09T05:01:51.226Z,4
2017-10-09T05:02:51.914Z,0
2017-10-09T05:03:52.566Z,0
2017-10-09T05:04:53.216Z,4
2017-10-09T05:05:53.870Z,0
2017-10-09T05:06:54.522Z,4
2017-10-09T05:07:55.174Z,4
2017-10-09T05:08:55.827Z,8
2017-10-09T05:09:56.479Z,8
2017-10-09T05:10:57.133Z,8
2017-10-09T05:11:57.785Z,8
2017-10-09T05:12:58.439Z,12
2017-10-09T05:13:59.093Z,12
2017-10-09T05:14:59.747Z,12
2017-10-09T05:16:00.400Z,16
2017-10-09T05:17:01.055Z,16
2017-10-09T05:18:01.709Z,24
2017-10-09T05:19:02.363Z,24
2017-10-09T05:20:03.068Z,28
2017-10-09T05:21:03.720Z,28
2017-10-09T05:22:04.376Z,36
2017-10-09T05:23:05.029Z,40
2017-10-09T05:24:05.683Z,52
2017-10-09T05:25:06.336Z,56
2017-10-09T05:26:06.992Z,64
2017-10-09T05:27:07.645Z,72
2017-10-09T05:28:08.299Z,80
2017-10-09T05:29:08.952Z,84
2017-10-09T05:30:09.657Z,96
2017-10-09T05:31:10.313Z,104
2017-10-09T05:32:10.967Z,116
2017-10-09T05:33:11.623Z,128
2017-10-09T05:34:12.279Z,136
2017-10-09T05:35:13.009Z,144
2017-10-09T05:36:13.678Z,156
2017-10-09T05:37:14.369Z,168
2017-10-09T05:38:15.026Z,176
2017-10-09T05:39:15.681Z,192
2017-10-09T05:40:16.338Z,208
2017-10-09T05:41:16.994Z,220
2017-10-09T05:42:17.686Z,232
2017-10-09T05:43:18.381Z,244
2017-10-09T05:44:19.037Z,256
2017-10-09T05:45:19.693Z,264
2017-10-09T05:46:20.352Z,280
2017-10-09T05:47:21.006Z,292
2017-10-09T05:48:21.700Z,308
2017-10-09T05:49:22.355Z,328
2017-10-09T05:50:23.061Z,348
2017-10-09T05:51:23.716Z,368
2017-10-09T05:52:24.371Z,400
2017-10-09T05:53:25.028Z,440
2017-10-09T05:54:25.686Z,476
2017-10-09T05:55:26.343Z,504
2017-10-09T05:56:26.997Z,520
2017-10-09T05:57:27.653Z,552
2017-10-09T05:58:28.347Z,568
2017-10-09T05:59:29.039Z,572
2017-10-09T06:00:29.695Z,576
2017-10-09T06:01:30.352Z,584
2017-10-09T06:02:31.009Z,612
2017-10-09T06:03:31.667Z,672
2017-10-09T06:04:32.322Z,728
2017-10-09T06:05:32.979Z,740
2017-10-09T06:06:33.634Z,824
2017-10-09T06:07:34.289Z,888
2017-10-09T06:08:34.946Z,940
2017-10-09T06:09:35.604Z,984
2017-10-09T06:10:36.259Z,1020
2017-10-09T06:11:36.916Z,1060
2017-10-09T06:12:37.574Z,1096
2017-10-09T06:13:38.234Z,1148
2017-10-09T06:14:38.892Z,1184
2017-10-09T06:15:39.550Z,1188
2017-10-09T06:16:40.207Z,1192
2017-10-09T06:17:40.866Z,1192
2017-10-09T06:18:41.524Z,1200
2017-10-09T06:19:42.183Z,1236
2017-10-09T06:20:42.894Z,1288
2017-10-09T06:21:43.553Z,1344
2017-10-09T06:22:44.212Z,1376
2017-10-09T06:23:44.870Z,1376
2017-10-09T06:24:45.528Z,1356
2017-10-09T06:25:46.188Z,1320
2017-10-09T06:26:46.847Z,1320
2017-10-09T06:27:47.506Z,1348
2017-10-09T06:28:48.165Z,1356
2017-10-09T06:29:48.825Z,1404
2017-10-09T06:30:49.483Z,1464
2017-10-09T06:31:50.141Z,1484
2017-10-09T06:32:50.801Z,1504
2017-10-09T06:33:51.461Z,1468
2017-10-09T06:34:52.160Z,1316
2017-10-09T06:35:52.854Z,1344
2017-10-09T06:36:53.514Z,1420
2017-10-09T06:37:54.174Z,1520
2017-10-09T06:38:54.833Z,1600
2017-10-09T06:39:55.493Z,1744
2017-10-09T06:40:56.154Z,1808
2017-10-09T06:41:56.816Z,1780
2017-10-09T06:42:57.475Z,1716
2017-10-09T06:43:58.134Z,1696
2017-10-09T06:44:58.796Z,1696
2017-10-09T06:45:59.452Z,1688
2017-10-09T06:47:00.110Z,1656
2017-10-09T06:48:00.769Z,1568
2017-10-09T06:49:01.429Z,1488
2017-10-09T06:50:02.090Z,1708
2017-10-09T06:51:02.839Z,1828
2017-10-09T06:52:03.498Z,1916
2017-10-09T06:53:04.160Z,2016
2017-10-09T06:54:04.819Z,2080
2017-10-09T06:55:05.480Z,2144
2017-10-09T06:56:06.139Z,2396
2017-10-09T06:57:06.799Z,2640
2017-10-09T06:58:07.462Z,2832
2017-10-09T06:59:08.122Z,2956
2017-10-09T07:00:08.782Z,3004
2017-10-09T07:01:09.442Z,3052
2017-10-09T07:02:10.104Z,3084
2017-10-09T07:03:10.765Z,3076
2017-10-09T07:04:11.426Z,2948
2017-10-09T07:05:12.085Z,3152
2017-10-09T07:06:12.745Z,3328
2017-10-09T07:07:13.409Z,3276
2017-10-09T07:08:14.068Z,3200
2017-10-09T07:09:14.729Z,3240
2017-10-09T07:10:15.389Z,3268
2017-10-09T07:11:16.049Z,3308
2017-10-09T07:12:16.711Z,3468
2017-10-09T07:13:17.370Z,3632
2017-10-09T07:14:18.031Z,3716
2017-10-09T07:15:18.730Z,3616
2017-10-09T07:16:19.391Z,3360
2017-10-09T07:17:20.051Z,3468
2017-10-09T07:18:20.712Z,3604
2017-10-09T07:19:21.374Z,3532
2017-10-09T07:20:22.034Z,3036
2017-10-09T07:21:22.695Z,3288
2017-10-09T07:22:23.358Z,3572
2017-10-09T07:23:24.021Z,3512
2017-10-09T07:24:24.680Z,3304
2017-10-09T07:25:25.342Z,3392
2017-10-09T07:26:26.003Z,3404
2017-10-09T07:27:26.665Z,3308
2017-10-09T07:28:27.329Z,3156
2017-10-09T07:29:27.987Z,2996
2017-10-09T07:30:28.651Z,2932
2017-10-09T07:31:29.314Z,2904
2017-10-09T07:32:29.974Z,2824
2017-10-09T07:33:30.636Z,2680
2017-10-09T07:34:31.297Z,2636
2017-10-09T07:35:31.957Z,2420
2017-10-09T07:36:32.618Z,2232
2017-10-09T07:37:33.280Z,2156
2017-10-09T07:38:33.941Z,2116
2017-10-09T07:39:34.604Z,2144
2017-10-09T07:40:35.266Z,2144
2017-10-09T07:41:35.926Z,2084
2017-10-09T07:42:36.587Z,2100
2017-10-09T07:43:37.286Z,2112
2017-10-09T07:44:37.947Z,2116
2017-10-09T07:45:38.609Z,2092
2017-10-09T07:46:39.272Z,2188
2017-10-09T07:47:39.934Z,2188
2017-10-09T07:48:40.596Z,2044
2017-10-09T07:49:41.257Z,1976
2017-10-09T07:50:41.918Z,2248
2017-10-09T07:51:42.579Z,2528
2017-10-09T07:52:43.240Z,2524
2017-10-09T07:53:43.902Z,2380
2017-10-09T07:54:44.564Z,2672
2017-10-09T07:55:45.228Z,3048
2017-10-09T07:56:45.890Z,3304
2017-10-09T07:57:46.550Z,3428
2017-10-09T07:58:47.215Z,3400
2017-10-09T07:59:48.002Z,3316
2017-10-09T08:00:48.593Z,3472
2017-10-09T08:01:49.254Z,3668
2017-10-09T08:02:49.917Z,3836
2017-10-09T08:03:50.579Z,3620
2017-10-09T08:04:51.241Z,3784
2017-10-09T08:05:51.902Z,3824
2017-10-09T08:06:52.563Z,3624
2017-10-09T08:07:53.226Z,3604
2017-10-09T08:08:53.886Z,3324
2017-10-09T08:09:54.548Z,2804
2017-10-09T08:10:55.245Z,2632
2017-10-09T08:11:55.906Z,2780
2017-10-09T08:12:56.567Z,2420
2017-10-09T08:13:57.231Z,2344
2017-10-09T08:14:57.894Z,2964
2017-10-09T08:15:58.556Z,3316
2017-10-09T08:16:59.267Z,3456
2017-10-09T08:17:59.927Z,3736
2017-10-09T08:19:00.589Z,4100
2017-10-09T08:20:01.250Z,4052
2017-10-09T08:21:01.913Z,4220
2017-10-09T08:22:02.626Z,4268
2017-10-09T08:23:03.287Z,4352
2017-10-09T08:24:03.948Z,4432
2017-10-09T08:25:04.611Z,4580
2017-10-09T08:26:05.273Z,4636
2017-10-09T08:27:05.934Z,4316
2017-10-09T08:28:06.593Z,4172
2017-10-09T08:29:07.255Z,4336
2017-10-09T08:30:07.917Z,4244
2017-10-09T08:31:08.580Z,4260
2017-10-09T08:32:09.241Z,4420
2017-10-09T08:33:09.904Z,4512
2017-10-09T08:34:10.605Z,4548
2017-10-09T08:35:11.303Z,4536
2017-10-09T08:36:11.968Z,4376
2017-10-09T08:37:12.677Z,4400
2017-10-09T08:38:13.339Z,4452
2017-10-09T08:39:14.000Z,4428
2017-10-09T08:40:14.662Z,4372
2017-10-09T08:41:15.327Z,4552
2017-10-09T08:42:15.988Z,4648
2017-10-09T08:43:16.650Z,4532
2017-10-09T08:44:17.311Z,4512
2017-10-09T08:45:17.974Z,4472
2017-10-09T08:46:18.639Z,4200
2017-10-09T08:47:19.300Z,4728
2017-10-09T08:48:19.960Z,5000
2017-10-09T08:49:20.624Z,5308
2017-10-09T08:50:21.323Z,5340
2017-10-09T08:51:21.984Z,5588
2017-10-09T08:52:22.647Z,5724
2017-10-09T08:53:23.312Z,6080
2017-10-09T08:54:23.983Z,6376
2017-10-09T08:55:24.645Z,6220
2017-10-09T08:56:25.306Z,6172
2017-10-09T08:57:25.969Z,6380
2017-10-09T08:58:26.633Z,6692
2017-10-09T08:59:27.297Z,6916
2017-10-09T09:00:27.958Z,6836
2017-10-09T09:01:28.621Z,6072
2017-10-09T09:02:29.284Z,5732
2017-10-09T09:03:29.946Z,5716
2017-10-09T09:04:30.609Z,5720
2017-10-09T09:05:31.270Z,5352
2017-10-09T09:06:31.937Z,4520
2017-10-09T09:07:32.650Z,4472
2017-10-09T09:08:33.315Z,5304
2017-10-09T09:09:33.978Z,5520
2017-10-09T09:10:34.640Z,5772
2017-10-09T09:11:35.303Z,5996
2017-10-09T09:12:36.019Z,6280
2017-10-09T09:13:36.714Z,6824
2017-10-09T09:14:37.379Z,7116
2017-10-09T09:15:38.041Z,7340
2017-10-09T09:16:38.705Z,7488
2017-10-09T09:17:39.369Z,7728
2017-10-09T09:18:40.032Z,7812
2017-10-09T09:19:40.695Z,7640
2017-10-09T09:20:41.358Z,7344
2017-10-09T09:21:42.024Z,7140
2017-10-09T09:22:42.772Z,6792
2017-10-09T09:23:43.434Z,6232
2017-10-09T09:24:44.098Z,5752
2017-10-09T09:25:44.763Z,5624
2017-10-09T09:26:45.428Z,5820
2017-10-09T09:27:46.091Z,5972
2017-10-09T09:28:46.791Z,5752
2017-10-09T09:29:47.455Z,5616
2017-10-09T09:30:48.155Z,5556
2017-10-09T09:31:48.819Z,5652
2017-10-09T09:32:49.484Z,5732
2017-10-09T09:33:50.149Z,6160
2017-10-09T09:34:50.812Z,6208
2017-10-09T09:35:51.475Z,6132
2017-10-09T09:36:52.137Z,6052
2017-10-09T09:37:52.850Z,5984
2017-10-09T09:38:53.515Z,5972
2017-10-09T09:39:54.178Z,6108
2017-10-09T09:40:54.841Z,6384
2017-10-09T09:41:55.505Z,6664
2017-10-09T09:42:56.170Z,7008
2017-10-09T09:43:56.832Z,7240
2017-10-09T09:44:57.493Z,7448
2017-10-09T09:45:58.156Z,7500
2017-10-09T09:46:58.819Z,7436
2017-10-09T09:47:59.531Z,7196
2017-10-09T09:49:00.195Z,7104
2017-10-09T09:50:00.857Z,7152
2017-10-09T09:51:01.523Z,7216
2017-10-09T09:52:02.189Z,7252
2017-10-09T09:53:02.904Z,7284
2017-10-09T09:54:03.570Z,7204
2017-10-09T09:55:04.236Z,7252
2017-10-09T09:56:04.897Z,7004
2017-10-09T09:57:05.562Z,7252
2017-10-09T09:58:06.225Z,7592
2017-10-09T09:59:06.891Z,7728
2017-10-09T10:00:07.555Z,7816
2017-10-09T10:01:08.221Z,7740
2017-10-09T10:02:08.882Z,7600
2017-10-09T10:03:09.548Z,7200
2017-10-09T10:04:10.247Z,7068
2017-10-09T10:05:10.910Z,7236
2017-10-09T10:06:11.574Z,7260
2017-10-09T10:07:12.239Z,7260
2017-10-09T10:08:12.902Z,7504
2017-10-09T10:09:13.566Z,7472
2017-10-09T10:10:14.233Z,7372
2017-10-09T10:11:14.933Z,7556
2017-10-09T10:12:15.597Z,7792
2017-10-09T10:13:16.261Z,7904
2017-10-09T10:14:16.926Z,7952
2017-10-09T10:15:17.589Z,7860
2017-10-09T10:16:18.253Z,7824
2017-10-09T10:17:18.918Z,8072
2017-10-09T10:18:19.587Z,8264
2017-10-09T10:19:20.249Z,8208
2017-10-09T10:20:20.913Z,7924
2017-10-09T10:21:21.612Z,7472
2017-10-09T10:22:22.275Z,7016
2017-10-09T10:23:22.989Z,7012
2017-10-09T10:24:23.652Z,6976
2017-10-09T10:25:24.316Z,6908
2017-10-09T10:26:24.982Z,6856
2017-10-09T10:27:25.648Z,7044
2017-10-09T10:28:26.312Z,7320
2017-10-09T10:29:26.981Z,7236
2017-10-09T10:30:27.640Z,6956
2017-10-09T10:31:28.304Z,6796
2017-10-09T10:32:28.967Z,6928
2017-10-09T10:33:29.632Z,7452
2017-10-09T10:34:30.302Z,8608
2017-10-09T10:35:30.960Z,9752
2017-10-09T10:36:31.623Z,9856
2017-10-09T10:37:32.288Z,9876
2017-10-09T10:38:32.953Z,8324
2017-10-09T10:39:33.617Z,8596
2017-10-09T10:40:34.280Z,8476
2017-10-09T10:41:34.946Z,9608
2017-10-09T10:42:35.612Z,10072
2017-10-09T10:43:36.278Z,9260
2017-10-09T10:44:36.941Z,8800
2017-10-09T10:45:37.606Z,8360
2017-10-09T10:46:38.308Z,7928
2017-10-09T10:47:38.971Z,8012
2017-10-09T10:48:39.686Z,8012
2017-10-09T10:49:40.351Z,7008
2017-10-09T10:50:41.054Z,6960
2017-10-09T10:51:41.716Z,8160
2017-10-09T10:52:42.383Z,7620
2017-10-09T10:53:43.045Z,7600
2017-10-09T10:54:43.710Z,7728
2017-10-09T10:55:44.374Z,7556
2017-10-09T10:56:45.039Z,7192
2017-10-09T10:57:45.704Z,7968
2017-10-09T10:58:46.371Z,7540
2017-10-09T10:59:47.036Z,7212
2017-10-09T11:00:47.701Z,7436
2017-10-09T11:01:48.365Z,7440
2017-10-09T11:02:49.096Z,7332
2017-10-09T11:03:49.690Z,6972
2017-10-09T11:04:50.358Z,6008
2017-10-09T11:05:51.021Z,5584
2017-10-09T11:06:51.685Z,6000
2017-10-09T11:07:52.351Z,6752
2017-10-09T11:08:53.050Z,7204
2017-10-09T11:09:53.714Z,6772
2017-10-09T11:10:54.377Z,6028
2017-10-09T11:11:55.042Z,5628
2017-10-09T11:12:55.708Z,5396
2017-10-09T11:13:56.410Z,5440
2017-10-09T11:14:57.073Z,6088
2017-10-09T11:15:57.737Z,7220
2017-10-09T11:16:58.402Z,6524
2017-10-09T11:17:59.066Z,6456
2017-10-09T11:18:59.732Z,6340
2017-10-09T11:20:00.402Z,6344
2017-10-09T11:21:01.065Z,5884
2017-10-09T11:22:01.732Z,5308
2017-10-09T11:23:02.432Z,4864
2017-10-09T11:24:03.146Z,4668
2017-10-09T11:25:03.812Z,4732
2017-10-09T11:26:04.475Z,4776
2017-10-09T11:27:05.137Z,6000
2017-10-09T11:28:05.802Z,4672
2017-10-09T11:29:06.467Z,4824
2017-10-09T11:30:07.132Z,5100
2017-10-09T11:31:07.797Z,5068
2017-10-09T11:32:08.460Z,4672
2017-10-09T11:33:09.124Z,4604
2017-10-09T11:34:09.790Z,5128
2017-10-09T11:35:10.452Z,6408
2017-10-09T11:36:11.116Z,7064
2017-10-09T11:37:11.781Z,7024
2017-10-09T11:38:12.447Z,6644
2017-10-09T11:39:13.162Z,6116
2017-10-09T11:40:13.827Z,5900
2017-10-09T11:41:14.491Z,5920
2017-10-09T11:42:15.155Z,6232
2017-10-09T11:43:15.819Z,6348
2017-10-09T11:44:16.482Z,5900
2017-10-09T11:45:17.147Z,6268
2017-10-09T11:46:17.847Z,6772
2017-10-09T11:47:18.513Z,7064
2017-10-09T11:48:19.177Z,7352
2017-10-09T11:49:19.842Z,7648
2017-10-09T11:50:20.506Z,7220
2017-10-09T11:51:21.169Z,7240
2017-10-09T11:52:21.833Z,7356
2017-10-09T11:53:22.498Z,6800
2017-10-09T11:54:23.160Z,6980
2017-10-09T11:55:23.824Z,7388
2017-10-09T11:56:24.488Z,6716
2017-10-09T11:57:25.152Z,6148
2017-10-09T11:58:25.818Z,5696
2017-10-09T11:59:26.478Z,5428
2017-10-09T12:00:27.146Z,4980
2017-10-09T12:01:27.810Z,5128
2017-10-09T12:02:28.511Z,4464
2017-10-09T12:03:29.177Z,4808
2017-10-09T12:04:29.878Z,5200
2017-10-09T12:05:30.542Z,6120
2017-10-09T12:06:31.206Z,6024
2017-10-09T12:07:31.907Z,5816
2017-10-09T12:08:32.608Z,4568
2017-10-09T12:09:33.274Z,4360
2017-10-09T12:10:33.936Z,5016
2017-10-09T12:11:34.597Z,5716
2017-10-09T12:12:35.265Z,6012
2017-10-09T12:13:35.926Z,5624
2017-10-09T12:14:36.589Z,5320
2017-10-09T12:15:37.253Z,5224
2017-10-09T12:16:37.917Z,4496
2017-10-09T12:17:38.580Z,4496
2017-10-09T12:18:39.243Z,4256
2017-10-09T12:19:39.906Z,4460
2017-10-09T12:20:40.571Z,5040
2017-10-09T12:21:41.234Z,5756
2017-10-09T12:22:41.895Z,5660
2017-10-09T12:23:42.560Z,5500
2017-10-09T12:24:43.276Z,5696
2017-10-09T12:25:43.942Z,6084
2017-10-09T12:26:44.643Z,5856
2017-10-09T12:27:45.308Z,5424
2017-10-09T12:28:46.007Z,5400
2017-10-09T12:29:46.720Z,6068
2017-10-09T12:30:47.384Z,5860
2017-10-09T12:31:48.047Z,6004
2017-10-09T12:32:48.711Z,4888
2017-10-09T12:33:49.374Z,4852
2017-10-09T12:34:50.037Z,5552
2017-10-09T12:35:50.700Z,5052
2017-10-09T12:36:51.365Z,4124
2017-10-09T12:37:52.029Z,3624
2017-10-09T12:38:52.696Z,3872
2017-10-09T12:39:53.406Z,3608
2017-10-09T12:40:54.069Z,3120
2017-10-09T12:41:54.733Z,2824
2017-10-09T12:42:55.399Z,3360
2017-10-09T12:43:56.099Z,3112
2017-10-09T12:44:56.761Z,3440
2017-10-09T12:45:57.428Z,3376
2017-10-09T12:46:58.091Z,3144
2017-10-09T12:47:58.792Z,3380
2017-10-09T12:48:59.455Z,3316
2017-10-09T12:50:00.118Z,3048
2017-10-09T12:51:00.781Z,3132
2017-10-09T12:52:01.445Z,4128
2017-10-09T12:53:02.109Z,5476
2017-10-09T12:54:02.773Z,5784
2017-10-09T12:55:03.436Z,4152
2017-10-09T12:56:04.099Z,4064
2017-10-09T12:57:04.765Z,4352
2017-10-09T12:58:05.430Z,5032
2017-10-09T12:59:06.094Z,5416
2017-10-09T13:00:06.806Z,5240
2017-10-09T13:01:07.469Z,5088
2017-10-09T13:02:08.132Z,4884
2017-10-09T13:03:08.796Z,5860
2017-10-09T13:04:09.459Z,6640
2017-10-09T13:05:10.170Z,6180
2017-10-09T13:06:10.833Z,6240
2017-10-09T13:07:11.496Z,6076
2017-10-09T13:08:12.159Z,6100
2017-10-09T13:09:12.822Z,5652
2017-10-09T13:10:13.537Z,5384
2017-10-09T13:11:14.197Z,5448
2017-10-09T13:12:14.860Z,4992
2017-10-09T13:13:15.524Z,5600
2017-10-09T13:14:16.188Z,5996
2017-10-09T13:15:16.851Z,5776
2017-10-09T13:16:17.517Z,6028
2017-10-09T13:17:18.219Z,5684
2017-10-09T13:18:18.884Z,5468
2017-10-09T13:19:19.543Z,5184
2017-10-09T13:20:20.244Z,4868
2017-10-09T13:21:20.907Z,3652
2017-10-09T13:22:21.571Z,4100
2017-10-09T13:23:22.235Z,4920
2017-10-09T13:24:22.900Z,3888
2017-10-09T13:25:23.615Z,3816
2017-10-09T13:26:24.279Z,3300
2017-10-09T13:27:24.942Z,3336
2017-10-09T13:28:25.608Z,3664
2017-10-09T13:29:26.268Z,3600
2017-10-09T13:30:26.930Z,3716
2017-10-09T13:31:27.594Z,3788
2017-10-09T13:32:28.258Z,3388
2017-10-09T13:33:28.925Z,3284
2017-10-09T13:34:29.585Z,3760
2017-10-09T13:35:30.299Z,2680
2017-10-09T13:36:30.961Z,2412
2017-10-09T13:37:31.624Z,2316
2017-10-09T13:38:32.287Z,2280
2017-10-09T13:39:32.952Z,2384
2017-10-09T13:40:33.663Z,2564
2017-10-09T13:41:34.326Z,2984
2017-10-09T13:42:34.987Z,3268
2017-10-09T13:43:35.652Z,3400
2017-10-09T13:44:36.314Z,3832
2017-10-09T13:45:36.975Z,4292
2017-10-09T13:46:37.638Z,3812
2017-10-09T13:47:38.303Z,3620
2017-10-09T13:48:39.000Z,3768
2017-10-09T13:49:39.665Z,3804
2017-10-09T13:50:40.367Z,3688
2017-10-09T13:51:41.029Z,3764
2017-10-09T13:52:41.692Z,3844
2017-10-09T13:53:42.355Z,3900
2017-10-09T13:54:43.017Z,3864
2017-10-09T13:55:43.679Z,3632
2017-10-09T13:56:44.343Z,3432
2017-10-09T13:57:45.007Z,3424
2017-10-09T13:58:45.669Z,3396
2017-10-09T13:59:46.331Z,3192
2017-10-09T14:00:46.994Z,2888